Kimble County Airport Junction US
ICAO: KJCT
IATA: JCT
Category: Medium
Scheduled Services: No

Elevation: 1749 ft
TransAlt. 18000 ft.

Airport Communications:
ASOS:119.275
HOUSTON CNTR:125.75
SAN ANGELO RDO:122.3
CTAF/UNICOM:122.8

KJCT Zoom In..

If Map Doesn't Load, Click Here

Runways:

(A) RW 08 length 2255 ft width 130 ft
---- / hdg 84

(B) RW 17 length 5004 ft width 75 ft
---- / hdg 172

(C) RW 26 length 2255 ft width 130 ft
---- / hdg 264

(D) RW 35 length 5004 ft width 75 ft
---- / hdg 352

Location; KJCT
Day. 23 / Time. 20.51 Zulu
* Altimeter: 29.96
* Temperature: 24° c. 75.2°f.
* Wind from: 340° Speed 05 kn.
Dewpoint: 18° c.
Visibility: 10 Statute Miles.
Clouds: Overcast 2500 ft.

KJCT 232051Z AUTO 34005KT 10SM OVC025 24/18 A2996 RMK AO2 SLP114 T02390183 56022


Wind From 340°
Speed 05 kn.

 
 
jpsmedia.com for Web Design worldairports.se 2018   terms of use